Terminal Aerodrome Forecast
Issued by NWS

Home | Current Version | Previous Version | Text Only | Print | Product List | Glossary On
Versions: 1 2 3 4 5 6 7 8 9 10 11 12 13 14 15 16
000
FTUS41 KRNK 181722
TAFBCB
TAF
KBCB 181722Z 1818/1918 26011KT P6SM BKN040 BKN060
     FM182000 26008KT P6SM VCTS BKN050CB
     FM182300 28006KT P6SM SCT050
     FM191000 00000KT 2SM BR SCT250
     FM191300 29004KT P6SM SCT250=

USA.gov is the U.S. government's official web portal to all federal, state and local government web resources and services.